Search for airport 
image banner adimage banner adimage banner ad
image banner ad

9CA1 - Barstow Service Center

Located in Barstow, United States

ICAO - 9CA1, IATA -

Data provided by Airmate  

General information

Coordinates: N34°52'31" W116°59'45"
Elevation is 2240 feet MSL.
Magnetic variation is 14° East
View others Airports in California

Operational data

Special qualification required
Current time UTC:
Current local time:
Weather at : KDAG - Barstow-Daggett ( 19 km )
METAR: KDAG 211350Z AUTO 25013G19KT 10SM CLR 32/M03 A2986 RMK AO2 SLP078 T03171028 $
TAF: KDAG 211132Z 2112/2212 24020G28KT P6SM SKC FM211700 27023G34KT P6SM SKC FM220300 25017G25KT P6SM SKC FM221000 28010KT P6SM SCT250
View NOTAMs / SUP AIP / TFR affecting this airport [VIEW]
Communications frequencies: [VIEW]

Runways:

Airport contact information

Address: Barstow United States

Satellite view of 9CA1